KDUG/DUG METAR and TAF weather

Enter ICAO airport designator
Station Type Date Time Source
KDUG METAR 2019/08/25 12:56 UTC NOAA

KDUG 251256Z AUTO 14005KT 10SM CLR 18/17 A3017 RMK AO2 SLP151 T01780172


Station Type Date Time Source
KDUG Decoded METAR 2019/08/25 12:56 UTC NOAA

Station name not available
Aug 25, 2019 - 08:56 AM EDT / 2019.08.25 1256 UTC
Wind: from the SE (140 degrees) at 6 MPH (5 KT):0
Visibility: 10 mile(s):0
Sky conditions: clear
Temperature: 64.0 F (17.8 C)
Dew Point: 63.0 F (17.2 C)
Relative Humidity: 96%
Pressure (altimeter): 30.17 in. Hg (1021 hPa)
ob: KDUG 251256Z AUTO 14005KT 10SM CLR 18/17 A3017 RMK AO2 SLP151 T01780172
cycle: 13

Station Type Date Time Source
KDUG TAF 2019/08/25 13:21 UTC NOAA

TAF
AMD KDUG 251317Z 2513/2612 16005KT P6SM FEW080 BKN250
FM251800 30006KT P6SM SCT080 SCT250
FM260700 04005KT P6SM SKC

Example: see airport list